sensor_id;sensor_type;location;lat;lon;timestamp;temperature;humidity
46926;DHT22;32667;48.248;-1.700;2022-12-07T00:01:18;4.40;78.00
46926;DHT22;32667;48.248;-1.700;2022-12-07T00:03:46;4.30;78.00
46926;DHT22;32667;48.248;-1.700;2022-12-07T00:06:13;4.30;78.10
46926;DHT22;32667;48.248;-1.700;2022-12-07T00:08:40;4.20;78.10
46926;DHT22;32667;48.248;-1.700;2022-12-07T00:11:12;4.20;78.20
46926;DHT22;32667;48.248;-1.700;2022-12-07T00:13:38;4.10;78.30
46926;DHT22;32667;48.248;-1.700;2022-12-07T00:16:14;4.10;78.30
46926;DHT22;32667;48.248;-1.700;2022-12-07T00:18:40;4.10;78.40
46926;DHT22;32667;48.248;-1.700;2022-12-07T00:21:10;4.10;78.40
46926;DHT22;32667;48.248;-1.700;2022-12-07T00:23:37;4.00;78.30
46926;DHT22;32667;48.248;-1.700;2022-12-07T00:26:11;4.10;78.40
46926;DHT22;32667;48.248;-1.700;2022-12-07T00:28:37;4.00;78.40
46926;DHT22;32667;48.248;-1.700;2022-12-07T00:31:06;4.00;78.40
46926;DHT22;32667;48.248;-1.700;2022-12-07T00:33:33;4.00;78.40
46926;DHT22;32667;48.248;-1.700;2022-12-07T00:35:59;4.00;78.30
46926;DHT22;32667;48.248;-1.700;2022-12-07T00:38:30;4.00;78.30
46926;DHT22;32667;48.248;-1.700;2022-12-07T00:41:02;4.00;78.30
46926;DHT22;32667;48.248;-1.700;2022-12-07T00:43:29;3.90;78.20
46926;DHT22;32667;48.248;-1.700;2022-12-07T00:45:55;3.90;78.20
46926;DHT22;32667;48.248;-1.700;2022-12-07T00:48:21;3.90;78.20
46926;DHT22;32667;48.248;-1.700;2022-12-07T00:50:48;3.90;78.30
46926;DHT22;32667;48.248;-1.700;2022-12-07T00:53:14;3.80;78.40
46926;DHT22;32667;48.248;-1.700;2022-12-07T00:55:40;3.80;78.40
46926;DHT22;32667;48.248;-1.700;2022-12-07T00:58:06;3.80;78.50
46926;DHT22;32667;48.248;-1.700;2022-12-07T01:00:32;3.80;78.50
46926;DHT22;32667;48.248;-1.700;2022-12-07T01:02:59;3.80;78.40
46926;DHT22;32667;48.248;-1.700;2022-12-07T01:05:24;3.80;78.40
46926;DHT22;32667;48.248;-1.700;2022-12-07T01:07:52;3.80;78.30
46926;DHT22;32667;48.248;-1.700;2022-12-07T01:10:21;3.80;78.30
46926;DHT22;32667;48.248;-1.700;2022-12-07T01:12:47;3.80;78.20
46926;DHT22;32667;48.248;-1.700;2022-12-07T01:15:13;3.70;78.20
46926;DHT22;32667;48.248;-1.700;2022-12-07T01:17:39;3.70;78.20
46926;DHT22;32667;48.248;-1.700;2022-12-07T01:20:05;3.60;78.30
46926;DHT22;32667;48.248;-1.700;2022-12-07T01:22:31;3.50;78.30
46926;DHT22;32667;48.248;-1.700;2022-12-07T01:24:57;3.50;78.40
46926;DHT22;32667;48.248;-1.700;2022-12-07T01:27:22;3.50;78.50
46926;DHT22;32667;48.248;-1.700;2022-12-07T01:29:48;3.50;78.50
46926;DHT22;32667;48.248;-1.700;2022-12-07T01:32:17;3.40;78.40
46926;DHT22;32667;48.248;-1.700;2022-12-07T01:34:42;3.40;78.50
46926;DHT22;32667;48.248;-1.700;2022-12-07T01:37:08;3.30;78.50
46926;DHT22;32667;48.248;-1.700;2022-12-07T01:39:34;3.30;78.60
46926;DHT22;32667;48.248;-1.700;2022-12-07T01:42:00;3.30;78.60
46926;DHT22;32667;48.248;-1.700;2022-12-07T01:44:30;3.20;78.60
46926;DHT22;32667;48.248;-1.700;2022-12-07T01:46:59;3.20;78.60
46926;DHT22;32667;48.248;-1.700;2022-12-07T01:49:39;3.20;78.60
46926;DHT22;32667;48.248;-1.700;2022-12-07T01:54:45;3.20;78.60
46926;DHT22;32667;48.248;-1.700;2022-12-07T01:57:12;3.10;78.60
46926;DHT22;32667;48.248;-1.700;2022-12-07T01:59:40;3.10;78.60
46926;DHT22;32667;48.248;-1.700;2022-12-07T02:02:12;3.10;78.50
46926;DHT22;32667;48.248;-1.700;2022-12-07T02:04:40;3.10;78.50
46926;DHT22;32667;48.248;-1.700;2022-12-07T02:07:05;3.00;78.60
46926;DHT22;32667;48.248;-1.700;2022-12-07T02:09:31;3.00;78.60
46926;DHT22;32667;48.248;-1.700;2022-12-07T02:11:57;3.00;78.60
46926;DHT22;32667;48.248;-1.700;2022-12-07T02:14:23;3.00;78.70
46926;DHT22;32667;48.248;-1.700;2022-12-07T02:22:40;2.90;78.60
46926;DHT22;32667;48.248;-1.700;2022-12-07T02:28:10;2.90;78.60
46926;DHT22;32667;48.248;-1.700;2022-12-07T02:30:45;2.80;78.60
46926;DHT22;32667;48.248;-1.700;2022-12-07T02:33:27;2.80;78.60
46926;DHT22;32667;48.248;-1.700;2022-12-07T02:35:55;2.80;78.70
46926;DHT22;32667;48.248;-1.700;2022-12-07T02:38:31;2.70;78.60
46926;DHT22;32667;48.248;-1.700;2022-12-07T02:41:02;2.70;78.70
46926;DHT22;32667;48.248;-1.700;2022-12-07T02:43:57;2.70;78.70
46926;DHT22;32667;48.248;-1.700;2022-12-07T02:46:28;2.70;78.70
46926;DHT22;32667;48.248;-1.700;2022-12-07T02:48:55;2.70;78.70
46926;DHT22;32667;48.248;-1.700;2022-12-07T02:51:22;2.60;78.70
46926;DHT22;32667;48.248;-1.700;2022-12-07T02:53:48;2.60;78.70
46926;DHT22;32667;48.248;-1.700;2022-12-07T03:02:50;2.60;78.80
46926;DHT22;32667;48.248;-1.700;2022-12-07T03:05:12;2.60;78.80
46926;DHT22;32667;48.248;-1.700;2022-12-07T03:16:02;2.70;78.50
46926;DHT22;32667;48.248;-1.700;2022-12-07T03:18:32;2.80;78.50
46926;DHT22;32667;48.248;-1.700;2022-12-07T03:21:02;2.80;78.30
46926;DHT22;32667;48.248;-1.700;2022-12-07T03:23:37;2.90;78.30
46926;DHT22;32667;48.248;-1.700;2022-12-07T03:26:07;2.90;78.30
46926;DHT22;32667;48.248;-1.700;2022-12-07T03:28:37;2.90;78.20
46926;DHT22;32667;48.248;-1.700;2022-12-07T03:31:25;2.90;78.20
46926;DHT22;32667;48.248;-1.700;2022-12-07T03:39:04;2.90;78.10
46926;DHT22;32667;48.248;-1.700;2022-12-07T03:41:34;2.80;78.10
46926;DHT22;32667;48.248;-1.700;2022-12-07T03:44:00;2.80;78.20
46926;DHT22;32667;48.248;-1.700;2022-12-07T03:47:10;2.80;78.20
46926;DHT22;32667;48.248;-1.700;2022-12-07T03:49:49;2.80;78.30
46926;DHT22;32667;48.248;-1.700;2022-12-07T03:52:45;2.80;78.30
46926;DHT22;32667;48.248;-1.700;2022-12-07T03:55:23;2.80;78.40
46926;DHT22;32667;48.248;-1.700;2022-12-07T03:57:54;2.80;78.30
46926;DHT22;32667;48.248;-1.700;2022-12-07T04:00:21;2.80;78.30
46926;DHT22;32667;48.248;-1.700;2022-12-07T04:02:47;2.80;78.20
46926;DHT22;32667;48.248;-1.700;2022-12-07T04:05:13;2.80;78.30
46926;DHT22;32667;48.248;-1.700;2022-12-07T04:07:38;2.80;78.20
46926;DHT22;32667;48.248;-1.700;2022-12-07T04:10:08;2.80;78.20
46926;DHT22;32667;48.248;-1.700;2022-12-07T04:12:34;2.90;78.20
46926;DHT22;32667;48.248;-1.700;2022-12-07T04:15:00;2.90;78.20
46926;DHT22;32667;48.248;-1.700;2022-12-07T04:17:26;2.90;78.20
46926;DHT22;32667;48.248;-1.700;2022-12-07T04:19:51;2.90;78.10
46926;DHT22;32667;48.248;-1.700;2022-12-07T04:22:17;2.90;78.10
46926;DHT22;32667;48.248;-1.700;2022-12-07T04:24:43;2.90;78.10
46926;DHT22;32667;48.248;-1.700;2022-12-07T04:27:09;2.90;78.10
46926;DHT22;32667;48.248;-1.700;2022-12-07T04:29:34;2.90;78.10
46926;DHT22;32667;48.248;-1.700;2022-12-07T04:32:00;2.80;78.10
46926;DHT22;32667;48.248;-1.700;2022-12-07T04:34:26;2.90;78.20
46926;DHT22;32667;48.248;-1.700;2022-12-07T04:36:55;2.90;78.20
46926;DHT22;32667;48.248;-1.700;2022-12-07T04:39:28;2.90;78.20
46926;DHT22;32667;48.248;-1.700;2022-12-07T04:41:54;2.90;78.10
46926;DHT22;32667;48.248;-1.700;2022-12-07T04:44:21;2.90;78.10
46926;DHT22;32667;48.248;-1.700;2022-12-07T04:46:47;2.90;78.00
46926;DHT22;32667;48.248;-1.700;2022-12-07T04:49:14;2.90;78.00
46926;DHT22;32667;48.248;-1.700;2022-12-07T04:51:41;3.00;78.00
46926;DHT22;32667;48.248;-1.700;2022-12-07T04:54:07;3.00;77.90
46926;DHT22;32667;48.248;-1.700;2022-12-07T04:56:33;3.00;77.90
46926;DHT22;32667;48.248;-1.700;2022-12-07T04:59:01;3.00;77.80
46926;DHT22;32667;48.248;-1.700;2022-12-07T05:01:27;3.00;77.90
46926;DHT22;32667;48.248;-1.700;2022-12-07T05:03:52;3.00;77.90
46926;DHT22;32667;48.248;-1.700;2022-12-07T05:06:18;3.10;77.90
46926;DHT22;32667;48.248;-1.700;2022-12-07T05:08:44;3.10;77.90
46926;DHT22;32667;48.248;-1.700;2022-12-07T05:11:11;3.10;77.80
46926;DHT22;32667;48.248;-1.700;2022-12-07T05:14:00;3.10;77.80
46926;DHT22;32667;48.248;-1.700;2022-12-07T05:16:26;3.20;77.80
46926;DHT22;32667;48.248;-1.700;2022-12-07T05:18:52;3.10;77.80
46926;DHT22;32667;48.248;-1.700;2022-12-07T05:21:20;3.10;77.80
46926;DHT22;32667;48.248;-1.700;2022-12-07T05:23:46;3.10;77.90
46926;DHT22;32667;48.248;-1.700;2022-12-07T05:26:12;3.10;77.90
46926;DHT22;32667;48.248;-1.700;2022-12-07T05:28:38;3.10;77.90
46926;DHT22;32667;48.248;-1.700;2022-12-07T05:31:04;3.10;77.90
46926;DHT22;32667;48.248;-1.700;2022-12-07T05:33:29;3.10;78.00
46926;DHT22;32667;48.248;-1.700;2022-12-07T05:35:55;3.00;78.00
46926;DHT22;32667;48.248;-1.700;2022-12-07T05:38:23;3.00;78.00
46926;DHT22;32667;48.248;-1.700;2022-12-07T05:40:50;3.00;78.10
46926;DHT22;32667;48.248;-1.700;2022-12-07T05:43:20;3.00;78.10
46926;DHT22;32667;48.248;-1.700;2022-12-07T05:45:46;3.00;78.10
46926;DHT22;32667;48.248;-1.700;2022-12-07T05:48:12;3.00;78.20
46926;DHT22;32667;48.248;-1.700;2022-12-07T05:50:37;3.00;78.10
46926;DHT22;32667;48.248;-1.700;2022-12-07T05:53:03;2.90;78.00
46926;DHT22;32667;48.248;-1.700;2022-12-07T05:55:29;2.90;78.10
46926;DHT22;32667;48.248;-1.700;2022-12-07T05:57:55;2.90;78.20
46926;DHT22;32667;48.248;-1.700;2022-12-07T06:00:39;2.90;78.20
46926;DHT22;32667;48.248;-1.700;2022-12-07T06:03:04;2.90;78.10
46926;DHT22;32667;48.248;-1.700;2022-12-07T06:05:30;3.00;78.10
46926;DHT22;32667;48.248;-1.700;2022-12-07T06:07:56;3.00;78.00
46926;DHT22;32667;48.248;-1.700;2022-12-07T06:10:22;3.00;77.80
46926;DHT22;32667;48.248;-1.700;2022-12-07T06:12:47;3.00;77.80
46926;DHT22;32667;48.248;-1.700;2022-12-07T06:15:13;3.00;77.80
46926;DHT22;32667;48.248;-1.700;2022-12-07T06:17:39;3.00;77.80
46926;DHT22;32667;48.248;-1.700;2022-12-07T06:20:06;3.10;77.80
46926;DHT22;32667;48.248;-1.700;2022-12-07T06:22:32;3.10;77.80
46926;DHT22;32667;48.248;-1.700;2022-12-07T06:24:57;3.00;77.80
46926;DHT22;32667;48.248;-1.700;2022-12-07T06:27:23;3.00;77.80
46926;DHT22;32667;48.248;-1.700;2022-12-07T06:29:49;3.00;77.80
46926;DHT22;32667;48.248;-1.700;2022-12-07T06:32:15;2.90;77.80
46926;DHT22;32667;48.248;-1.700;2022-12-07T06:34:40;2.90;78.00
46926;DHT22;32667;48.248;-1.700;2022-12-07T06:37:06;2.90;78.00
46926;DHT22;32667;48.248;-1.700;2022-12-07T06:39:32;2.90;78.10
46926;DHT22;32667;48.248;-1.700;2022-12-07T06:41:58;2.90;78.20
46926;DHT22;32667;48.248;-1.700;2022-12-07T06:44:25;2.90;78.30
46926;DHT22;32667;48.248;-1.700;2022-12-07T06:46:51;2.90;78.30
46926;DHT22;32667;48.248;-1.700;2022-12-07T06:49:20;2.90;78.30
46926;DHT22;32667;48.248;-1.700;2022-12-07T06:51:48;2.90;78.20
46926;DHT22;32667;48.248;-1.700;2022-12-07T06:54:15;3.00;78.20
46926;DHT22;32667;48.248;-1.700;2022-12-07T06:56:41;3.00;78.20
46926;DHT22;32667;48.248;-1.700;2022-12-07T06:59:07;3.10;78.20
46926;DHT22;32667;48.248;-1.700;2022-12-07T07:01:34;3.10;78.10
46926;DHT22;32667;48.248;-1.700;2022-12-07T07:04:01;3.10;78.00
46926;DHT22;32667;48.248;-1.700;2022-12-07T07:06:27;3.20;78.00
46926;DHT22;32667;48.248;-1.700;2022-12-07T07:08:53;3.20;77.90
46926;DHT22;32667;48.248;-1.700;2022-12-07T07:11:19;3.30;77.90
46926;DHT22;32667;48.248;-1.700;2022-12-07T07:13:45;3.30;77.80
46926;DHT22;32667;48.248;-1.700;2022-12-07T07:16:13;3.30;77.70
46926;DHT22;32667;48.248;-1.700;2022-12-07T07:18:42;3.30;77.70
46926;DHT22;32667;48.248;-1.700;2022-12-07T07:21:07;3.20;77.70
46926;DHT22;32667;48.248;-1.700;2022-12-07T07:23:33;3.20;77.70
46926;DHT22;32667;48.248;-1.700;2022-12-07T07:25:59;3.20;77.80
46926;DHT22;32667;48.248;-1.700;2022-12-07T07:28:25;3.20;77.80
46926;DHT22;32667;48.248;-1.700;2022-12-07T07:30:50;3.20;77.80
46926;DHT22;32667;48.248;-1.700;2022-12-07T07:33:21;3.30;77.90
46926;DHT22;32667;48.248;-1.700;2022-12-07T07:35:47;3.30;77.90
46926;DHT22;32667;48.248;-1.700;2022-12-07T07:38:13;3.30;77.90
46926;DHT22;32667;48.248;-1.700;2022-12-07T07:40:39;3.30;77.90
46926;DHT22;32667;48.248;-1.700;2022-12-07T07:43:05;3.20;78.00
46926;DHT22;32667;48.248;-1.700;2022-12-07T07:45:31;3.30;78.20
46926;DHT22;32667;48.248;-1.700;2022-12-07T07:47:57;3.30;78.10
46926;DHT22;32667;48.248;-1.700;2022-12-07T07:50:24;3.30;78.00
46926;DHT22;32667;48.248;-1.700;2022-12-07T07:52:50;3.40;78.00
46926;DHT22;32667;48.248;-1.700;2022-12-07T07:55:16;3.40;77.90
46926;DHT22;32667;48.248;-1.700;2022-12-07T07:57:42;3.40;77.80
46926;DHT22;32667;48.248;-1.700;2022-12-07T08:00:10;3.40;77.70
46926;DHT22;32667;48.248;-1.700;2022-12-07T08:02:36;3.40;77.70
46926;DHT22;32667;48.248;-1.700;2022-12-07T08:05:02;3.40;77.70
46926;DHT22;32667;48.248;-1.700;2022-12-07T08:07:28;3.40;77.70
46926;DHT22;32667;48.248;-1.700;2022-12-07T08:09:54;3.40;77.70
46926;DHT22;32667;48.248;-1.700;2022-12-07T08:12:20;3.50;77.70
46926;DHT22;32667;48.248;-1.700;2022-12-07T08:14:45;3.40;77.70
46926;DHT22;32667;48.248;-1.700;2022-12-07T08:17:12;3.40;77.60
46926;DHT22;32667;48.248;-1.700;2022-12-07T08:19:38;3.40;77.80
46926;DHT22;32667;48.248;-1.700;2022-12-07T08:22:04;3.30;78.50
46926;DHT22;32667;48.248;-1.700;2022-12-07T08:24:29;3.30;78.00
46926;DHT22;32667;48.248;-1.700;2022-12-07T08:26:55;3.20;78.20
46926;DHT22;32667;48.248;-1.700;2022-12-07T08:29:21;3.20;78.40
46926;DHT22;32667;48.248;-1.700;2022-12-07T08:31:47;3.20;78.90
46926;DHT22;32667;48.248;-1.700;2022-12-07T08:34:13;3.10;78.40
46926;DHT22;32667;48.248;-1.700;2022-12-07T08:36:40;3.10;78.40
46926;DHT22;32667;48.248;-1.700;2022-12-07T08:39:05;3.00;78.40
46926;DHT22;32667;48.248;-1.700;2022-12-07T08:41:31;3.00;78.70
46926;DHT22;32667;48.248;-1.700;2022-12-07T08:43:57;3.00;78.80
46926;DHT22;32667;48.248;-1.700;2022-12-07T08:49:14;3.00;78.70
46926;DHT22;32667;48.248;-1.700;2022-12-07T08:51:42;2.90;78.70
46926;DHT22;32667;48.248;-1.700;2022-12-07T08:54:11;2.90;78.90
46926;DHT22;32667;48.248;-1.700;2022-12-07T08:56:38;3.00;79.10
46926;DHT22;32667;48.248;-1.700;2022-12-07T08:59:05;3.10;79.00
46926;DHT22;32667;48.248;-1.700;2022-12-07T09:01:31;3.20;78.80
46926;DHT22;32667;48.248;-1.700;2022-12-07T09:03:58;3.30;78.60
46926;DHT22;32667;48.248;-1.700;2022-12-07T09:06:24;3.40;78.40
46926;DHT22;32667;48.248;-1.700;2022-12-07T09:08:55;3.60;78.10
46926;DHT22;32667;48.248;-1.700;2022-12-07T09:11:23;3.70;78.00
46926;DHT22;32667;48.248;-1.700;2022-12-07T09:13:48;3.80;77.80
46926;DHT22;32667;48.248;-1.700;2022-12-07T09:16:14;3.80;77.60
46926;DHT22;32667;48.248;-1.700;2022-12-07T09:18:40;3.80;77.50
46926;DHT22;32667;48.248;-1.700;2022-12-07T09:21:08;3.70;77.40
46926;DHT22;32667;48.248;-1.700;2022-12-07T09:23:35;3.60;77.80
46926;DHT22;32667;48.248;-1.700;2022-12-07T09:26:02;3.60;78.10
46926;DHT22;32667;48.248;-1.700;2022-12-07T09:28:28;3.70;78.10
46926;DHT22;32667;48.248;-1.700;2022-12-07T09:30:54;3.70;78.00
46926;DHT22;32667;48.248;-1.700;2022-12-07T09:33:19;3.80;77.90
46926;DHT22;32667;48.248;-1.700;2022-12-07T09:35:47;3.80;77.80
46926;DHT22;32667;48.248;-1.700;2022-12-07T09:38:13;3.90;77.80
46926;DHT22;32667;48.248;-1.700;2022-12-07T09:40:39;3.90;78.20
46926;DHT22;32667;48.248;-1.700;2022-12-07T09:43:15;3.90;77.60
46926;DHT22;32667;48.248;-1.700;2022-12-07T09:45:42;3.90;77.60
46926;DHT22;32667;48.248;-1.700;2022-12-07T09:48:21;3.90;77.70
46926;DHT22;32667;48.248;-1.700;2022-12-07T09:50:49;3.90;77.70
46926;DHT22;32667;48.248;-1.700;2022-12-07T09:53:25;3.90;77.70
46926;DHT22;32667;48.248;-1.700;2022-12-07T09:55:51;3.90;77.70
46926;DHT22;32667;48.248;-1.700;2022-12-07T09:58:35;4.00;77.70
46926;DHT22;32667;48.248;-1.700;2022-12-07T10:01:21;4.00;77.50
46926;DHT22;32667;48.248;-1.700;2022-12-07T10:03:59;4.10;77.50
46926;DHT22;32667;48.248;-1.700;2022-12-07T10:06:26;4.10;77.30
46926;DHT22;32667;48.248;-1.700;2022-12-07T10:08:52;4.10;77.20
46926;DHT22;32667;48.248;-1.700;2022-12-07T10:11:17;4.10;77.30
46926;DHT22;32667;48.248;-1.700;2022-12-07T10:13:51;4.10;77.50
46926;DHT22;32667;48.248;-1.700;2022-12-07T10:18:52;4.00;77.50
46926;DHT22;32667;48.248;-1.700;2022-12-07T10:21:20;4.00;77.60
46926;DHT22;32667;48.248;-1.700;2022-12-07T10:26:50;4.10;77.60
46926;DHT22;32667;48.248;-1.700;2022-12-07T10:29:20;4.20;77.60
46926;DHT22;32667;48.248;-1.700;2022-12-07T10:31:54;4.30;78.10
46926;DHT22;32667;48.248;-1.700;2022-12-07T10:34:38;4.40;77.80
46926;DHT22;32667;48.248;-1.700;2022-12-07T10:37:16;4.50;77.10
46926;DHT22;32667;48.248;-1.700;2022-12-07T10:39:54;4.60;76.90
46926;DHT22;32667;48.248;-1.700;2022-12-07T10:42:27;4.60;76.90
46926;DHT22;32667;48.248;-1.700;2022-12-07T10:48:00;4.80;76.80
46926;DHT22;32667;48.248;-1.700;2022-12-07T10:51:05;4.80;76.70
46926;DHT22;32667;48.248;-1.700;2022-12-07T10:53:58;4.80;76.80
46926;DHT22;32667;48.248;-1.700;2022-12-07T11:04:35;5.10;76.60
46926;DHT22;32667;48.248;-1.700;2022-12-07T11:07:28;5.10;76.60
46926;DHT22;32667;48.248;-1.700;2022-12-07T11:10:11;5.20;76.60
46926;DHT22;32667;48.248;-1.700;2022-12-07T11:13:12;5.20;76.50
46926;DHT22;32667;48.248;-1.700;2022-12-07T11:16:02;5.20;76.60
46926;DHT22;32667;48.248;-1.700;2022-12-07T11:21:25;5.40;76.40
46926;DHT22;32667;48.248;-1.700;2022-12-07T11:34:59;5.70;76.10
46926;DHT22;32667;48.248;-1.700;2022-12-07T11:37:34;5.80;76.00
46926;DHT22;32667;48.248;-1.700;2022-12-07T11:40:16;5.90;76.00
46926;DHT22;32667;48.248;-1.700;2022-12-07T11:42:55;5.90;75.90
46926;DHT22;32667;48.248;-1.700;2022-12-07T11:45:27;5.90;75.80
46926;DHT22;32667;48.248;-1.700;2022-12-07T11:48:10;6.00;75.80
46926;DHT22;32667;48.248;-1.700;2022-12-07T11:50:57;6.00;75.90
46926;DHT22;32667;48.248;-1.700;2022-12-07T11:53:57;6.10;75.90
46926;DHT22;32667;48.248;-1.700;2022-12-07T11:56:26;6.10;75.80
46926;DHT22;32667;48.248;-1.700;2022-12-07T11:59:11;6.20;75.70
46926;DHT22;32667;48.248;-1.700;2022-12-07T12:06:37;6.40;75.50
46926;DHT22;32667;48.248;-1.700;2022-12-07T12:09:21;6.50;75.50
46926;DHT22;32667;48.248;-1.700;2022-12-07T12:17:34;6.50;75.50
46926;DHT22;32667;48.248;-1.700;2022-12-07T12:22:55;6.70;75.60
46926;DHT22;32667;48.248;-1.700;2022-12-07T12:27:54;6.80;75.30
46926;DHT22;32667;48.248;-1.700;2022-12-07T12:33:27;6.90;75.30
46926;DHT22;32667;48.248;-1.700;2022-12-07T12:47:04;7.20;75.10
46926;DHT22;32667;48.248;-1.700;2022-12-07T12:49:38;7.30;75.10
46926;DHT22;32667;48.248;-1.700;2022-12-07T12:55:11;7.50;75.00
46926;DHT22;32667;48.248;-1.700;2022-12-07T12:57:38;7.60;74.90
46926;DHT22;32667;48.248;-1.700;2022-12-07T13:00:24;7.70;74.80
46926;DHT22;32667;48.248;-1.700;2022-12-07T13:02:58;7.80;74.60
46926;DHT22;32667;48.248;-1.700;2022-12-07T13:05:31;8.00;74.60
46926;DHT22;32667;48.248;-1.700;2022-12-07T13:08:15;8.10;74.50
46926;DHT22;32667;48.248;-1.700;2022-12-07T13:10:45;8.20;74.40
46926;DHT22;32667;48.248;-1.700;2022-12-07T13:28:50;9.10;73.50
46926;DHT22;32667;48.248;-1.700;2022-12-07T13:34:00;9.30;73.50
46926;DHT22;32667;48.248;-1.700;2022-12-07T13:36:30;9.40;73.50
46926;DHT22;32667;48.248;-1.700;2022-12-07T13:41:41;9.50;73.40
46926;DHT22;32667;48.248;-1.700;2022-12-07T13:44:17;9.60;73.50
46926;DHT22;32667;48.248;-1.700;2022-12-07T13:47:16;9.60;73.60
46926;DHT22;32667;48.248;-1.700;2022-12-07T13:49:54;9.60;73.70
46926;DHT22;32667;48.248;-1.700;2022-12-07T13:52:24;9.70;73.70
46926;DHT22;32667;48.248;-1.700;2022-12-07T13:57:33;9.80;73.60
46926;DHT22;32667;48.248;-1.700;2022-12-07T14:00:03;9.80;73.80
46926;DHT22;32667;48.248;-1.700;2022-12-07T14:02:31;9.80;73.90
46926;DHT22;32667;48.248;-1.700;2022-12-07T14:05:25;9.80;74.10
46926;DHT22;32667;48.248;-1.700;2022-12-07T14:10:31;9.90;74.10
46926;DHT22;32667;48.248;-1.700;2022-12-07T14:13:01;9.80;74.20
46926;DHT22;32667;48.248;-1.700;2022-12-07T14:15:32;9.70;74.30
46926;DHT22;32667;48.248;-1.700;2022-12-07T14:18:00;9.70;74.60
46926;DHT22;32667;48.248;-1.700;2022-12-07T14:22:55;9.80;74.70
46926;DHT22;32667;48.248;-1.700;2022-12-07T14:25:23;9.80;74.60
46926;DHT22;32667;48.248;-1.700;2022-12-07T14:27:59;9.90;74.50
46926;DHT22;32667;48.248;-1.700;2022-12-07T14:30:30;9.90;74.50
46926;DHT22;32667;48.248;-1.700;2022-12-07T14:33:01;9.90;74.50
46926;DHT22;32667;48.248;-1.700;2022-12-07T14:35:27;9.90;74.50
46926;DHT22;32667;48.248;-1.700;2022-12-07T14:37:53;9.90;74.50
46926;DHT22;32667;48.248;-1.700;2022-12-07T14:40:27;9.90;74.50
46926;DHT22;32667;48.248;-1.700;2022-12-07T14:43:06;9.90;74.40
46926;DHT22;32667;48.248;-1.700;2022-12-07T14:45:34;9.90;74.40
46926;DHT22;32667;48.248;-1.700;2022-12-07T14:48:00;9.90;74.40
46926;DHT22;32667;48.248;-1.700;2022-12-07T14:50:26;9.90;74.40
46926;DHT22;32667;48.248;-1.700;2022-12-07T14:52:55;9.90;74.40
46926;DHT22;32667;48.248;-1.700;2022-12-07T14:55:31;9.90;74.50
46926;DHT22;32667;48.248;-1.700;2022-12-07T14:57:58;9.90;75.10
46926;DHT22;32667;48.248;-1.700;2022-12-07T15:00:25;9.90;74.50
46926;DHT22;32667;48.248;-1.700;2022-12-07T15:02:52;9.90;74.60
46926;DHT22;32667;48.248;-1.700;2022-12-07T15:05:18;9.90;74.60
46926;DHT22;32667;48.248;-1.700;2022-12-07T15:07:45;9.90;74.60
46926;DHT22;32667;48.248;-1.700;2022-12-07T15:10:26;9.90;74.70
46926;DHT22;32667;48.248;-1.700;2022-12-07T15:12:56;9.80;74.70
46926;DHT22;32667;48.248;-1.700;2022-12-07T15:15:42;9.80;74.70
46926;DHT22;32667;48.248;-1.700;2022-12-07T15:18:07;9.80;74.70
46926;DHT22;32667;48.248;-1.700;2022-12-07T15:20:33;9.80;74.80
46926;DHT22;32667;48.248;-1.700;2022-12-07T15:22:59;9.70;74.80
46926;DHT22;32667;48.248;-1.700;2022-12-07T15:25:25;9.70;74.90
46926;DHT22;32667;48.248;-1.700;2022-12-07T15:27:50;9.70;75.00
46926;DHT22;32667;48.248;-1.700;2022-12-07T15:30:16;9.60;75.10
46926;DHT22;32667;48.248;-1.700;2022-12-07T15:32:42;9.60;75.10
46926;DHT22;32667;48.248;-1.700;2022-12-07T15:35:08;9.60;75.10
46926;DHT22;32667;48.248;-1.700;2022-12-07T15:37:34;9.60;75.10
46926;DHT22;32667;48.248;-1.700;2022-12-07T15:39:59;9.70;75.10
46926;DHT22;32667;48.248;-1.700;2022-12-07T15:42:25;9.70;75.10
46926;DHT22;32667;48.248;-1.700;2022-12-07T15:44:51;9.70;75.10
46926;DHT22;32667;48.248;-1.700;2022-12-07T15:47:39;9.80;75.00
46926;DHT22;32667;48.248;-1.700;2022-12-07T15:50:08;9.70;74.90
46926;DHT22;32667;48.248;-1.700;2022-12-07T15:52:35;9.70;74.90
46926;DHT22;32667;48.248;-1.700;2022-12-07T15:55:01;9.70;75.00
46926;DHT22;32667;48.248;-1.700;2022-12-07T15:57:32;9.60;75.00
46926;DHT22;32667;48.248;-1.700;2022-12-07T15:59:58;9.60;75.10
46926;DHT22;32667;48.248;-1.700;2022-12-07T16:02:24;9.50;75.10
46926;DHT22;32667;48.248;-1.700;2022-12-07T16:04:51;9.50;75.20
46926;DHT22;32667;48.248;-1.700;2022-12-07T16:07:17;9.40;75.30
46926;DHT22;32667;48.248;-1.700;2022-12-07T16:09:45;9.40;75.40
46926;DHT22;32667;48.248;-1.700;2022-12-07T16:12:11;9.30;75.50
46926;DHT22;32667;48.248;-1.700;2022-12-07T16:14:38;9.30;75.60
46926;DHT22;32667;48.248;-1.700;2022-12-07T16:17:04;9.20;75.60
46926;DHT22;32667;48.248;-1.700;2022-12-07T16:19:31;9.10;75.70
46926;DHT22;32667;48.248;-1.700;2022-12-07T16:21:57;9.10;75.70
46926;DHT22;32667;48.248;-1.700;2022-12-07T16:24:24;9.10;75.80
46926;DHT22;32667;48.248;-1.700;2022-12-07T16:26:49;9.00;75.70
46926;DHT22;32667;48.248;-1.700;2022-12-07T16:29:17;8.90;75.80
46926;DHT22;32667;48.248;-1.700;2022-12-07T16:31:43;8.90;75.90
46926;DHT22;32667;48.248;-1.700;2022-12-07T16:34:09;8.80;75.90
46926;DHT22;32667;48.248;-1.700;2022-12-07T16:36:35;8.70;76.00
46926;DHT22;32667;48.248;-1.700;2022-12-07T16:39:02;8.70;76.10
46926;DHT22;32667;48.248;-1.700;2022-12-07T16:41:28;8.50;76.20
46926;DHT22;32667;48.248;-1.700;2022-12-07T16:43:54;8.50;76.40
46926;DHT22;32667;48.248;-1.700;2022-12-07T16:46:20;8.40;76.50
46926;DHT22;32667;48.248;-1.700;2022-12-07T16:48:45;8.30;76.50
46926;DHT22;32667;48.248;-1.700;2022-12-07T16:51:13;8.30;76.50
46926;DHT22;32667;48.248;-1.700;2022-12-07T16:53:41;8.20;77.10
46926;DHT22;32667;48.248;-1.700;2022-12-07T16:56:14;8.20;76.60
46926;DHT22;32667;48.248;-1.700;2022-12-07T16:58:41;8.10;76.70
46926;DHT22;32667;48.248;-1.700;2022-12-07T17:01:19;8.10;76.70
46926;DHT22;32667;48.248;-1.700;2022-12-07T17:03:45;8.00;76.70
46926;DHT22;32667;48.248;-1.700;2022-12-07T17:06:17;8.00;76.80
46926;DHT22;32667;48.248;-1.700;2022-12-07T17:08:44;7.90;76.70
46926;DHT22;32667;48.248;-1.700;2022-12-07T17:11:17;7.90;76.70
46926;DHT22;32667;48.248;-1.700;2022-12-07T17:13:44;7.80;76.70
46926;DHT22;32667;48.248;-1.700;2022-12-07T17:16:29;7.80;76.80
46926;DHT22;32667;48.248;-1.700;2022-12-07T17:18:54;7.80;76.80
46926;DHT22;32667;48.248;-1.700;2022-12-07T17:21:21;7.70;76.70
46926;DHT22;32667;48.248;-1.700;2022-12-07T17:23:47;7.70;76.70
46926;DHT22;32667;48.248;-1.700;2022-12-07T17:26:16;7.70;76.80
46926;DHT22;32667;48.248;-1.700;2022-12-07T17:28:43;7.70;76.70
46926;DHT22;32667;48.248;-1.700;2022-12-07T17:31:15;7.60;76.70
46926;DHT22;32667;48.248;-1.700;2022-12-07T17:33:40;7.60;76.70
46926;DHT22;32667;48.248;-1.700;2022-12-07T17:36:17;7.60;76.70
46926;DHT22;32667;48.248;-1.700;2022-12-07T17:38:45;7.60;76.70
46926;DHT22;32667;48.248;-1.700;2022-12-07T17:41:21;7.50;76.70
46926;DHT22;32667;48.248;-1.700;2022-12-07T17:44:08;7.50;76.70
46926;DHT22;32667;48.248;-1.700;2022-12-07T17:46:38;7.50;76.70
46926;DHT22;32667;48.248;-1.700;2022-12-07T17:49:05;7.50;76.70
46926;DHT22;32667;48.248;-1.700;2022-12-07T17:51:31;7.50;76.70